sensor_id;sensor_type;location;lat;lon;timestamp;P1;durP1;ratioP1;P2;durP2;ratioP2
6791;SDS011;3433;48.730;9.108;2023-12-29T00:00:31;2.67;;;2.47;;
6791;SDS011;3433;48.730;9.108;2023-12-29T00:03:20;3.33;;;2.80;;
6791;SDS011;3433;48.730;9.108;2023-12-29T00:06:07;3.33;;;2.43;;
6791;SDS011;3433;48.730;9.108;2023-12-29T00:08:54;3.53;;;2.80;;
6791;SDS011;3433;48.730;9.108;2023-12-29T00:11:41;2.73;;;2.53;;
6791;SDS011;3433;48.730;9.108;2023-12-29T00:14:28;2.77;;;2.57;;
6791;SDS011;3433;48.730;9.108;2023-12-29T00:17:15;4.97;;;2.73;;
6791;SDS011;3433;48.730;9.108;2023-12-29T00:20:04;5.83;;;3.00;;
6791;SDS011;3433;48.730;9.108;2023-12-29T00:22:53;4.10;;;2.40;;
6791;SDS011;3433;48.730;9.108;2023-12-29T00:25:43;2.53;;;2.33;;
6791;SDS011;3433;48.730;9.108;2023-12-29T00:28:30;4.00;;;3.10;;
6791;SDS011;3433;48.730;9.108;2023-12-29T00:31:18;2.80;;;2.30;;
6791;SDS011;3433;48.730;9.108;2023-12-29T00:34:05;2.63;;;2.40;;
6791;SDS011;3433;48.730;9.108;2023-12-29T00:36:53;3.87;;;2.53;;
6791;SDS011;3433;48.730;9.108;2023-12-29T00:39:41;2.73;;;2.53;;
6791;SDS011;3433;48.730;9.108;2023-12-29T00:42:28;3.13;;;2.83;;
6791;SDS011;3433;48.730;9.108;2023-12-29T00:45:15;3.13;;;2.40;;
6791;SDS011;3433;48.730;9.108;2023-12-29T00:48:03;3.53;;;3.07;;
6791;SDS011;3433;48.730;9.108;2023-12-29T00:50:50;3.30;;;2.70;;
6791;SDS011;3433;48.730;9.108;2023-12-29T00:53:39;3.30;;;2.93;;
6791;SDS011;3433;48.730;9.108;2023-12-29T00:56:26;3.17;;;2.30;;
6791;SDS011;3433;48.730;9.108;2023-12-29T00:59:13;3.43;;;2.80;;
6791;SDS011;3433;48.730;9.108;2023-12-29T01:02:00;3.43;;;3.13;;
6791;SDS011;3433;48.730;9.108;2023-12-29T01:04:47;4.53;;;3.30;;
6791;SDS011;3433;48.730;9.108;2023-12-29T01:07:35;3.13;;;2.63;;
6791;SDS011;3433;48.730;9.108;2023-12-29T01:10:23;5.73;;;3.07;;
6791;SDS011;3433;48.730;9.108;2023-12-29T01:13:11;3.20;;;2.80;;
6791;SDS011;3433;48.730;9.108;2023-12-29T01:15:58;3.00;;;2.70;;
6791;SDS011;3433;48.730;9.108;2023-12-29T01:18:45;4.00;;;3.03;;
6791;SDS011;3433;48.730;9.108;2023-12-29T01:21:32;3.53;;;3.23;;
6791;SDS011;3433;48.730;9.108;2023-12-29T01:24:19;8.20;;;2.73;;
6791;SDS011;3433;48.730;9.108;2023-12-29T01:27:08;3.30;;;2.73;;
6791;SDS011;3433;48.730;9.108;2023-12-29T01:29:55;5.73;;;3.27;;
6791;SDS011;3433;48.730;9.108;2023-12-29T01:32:42;5.77;;;3.07;;
6791;SDS011;3433;48.730;9.108;2023-12-29T01:35:30;3.30;;;3.00;;
6791;SDS011;3433;48.730;9.108;2023-12-29T01:38:17;3.57;;;2.93;;
6791;SDS011;3433;48.730;9.108;2023-12-29T01:41:04;3.20;;;2.77;;
6791;SDS011;3433;48.730;9.108;2023-12-29T01:46:44;5.50;;;4.03;;
6791;SDS011;3433;48.730;9.108;2023-12-29T01:49:33;4.33;;;3.50;;
6791;SDS011;3433;48.730;9.108;2023-12-29T01:52:21;3.80;;;3.43;;
6791;SDS011;3433;48.730;9.108;2023-12-29T01:55:08;5.30;;;3.80;;
6791;SDS011;3433;48.730;9.108;2023-12-29T01:57:59;3.80;;;3.30;;
6791;SDS011;3433;48.730;9.108;2023-12-29T02:00:47;4.30;;;3.90;;
6791;SDS011;3433;48.730;9.108;2023-12-29T02:03:36;3.77;;;3.40;;
6791;SDS011;3433;48.730;9.108;2023-12-29T02:06:23;3.97;;;3.57;;
6791;SDS011;3433;48.730;9.108;2023-12-29T02:09:11;5.20;;;3.47;;
6791;SDS011;3433;48.730;9.108;2023-12-29T02:12:00;4.30;;;3.47;;
6791;SDS011;3433;48.730;9.108;2023-12-29T02:14:47;3.43;;;3.10;;
6791;SDS011;3433;48.730;9.108;2023-12-29T02:17:35;3.70;;;3.40;;
6791;SDS011;3433;48.730;9.108;2023-12-29T02:20:27;3.90;;;3.50;;
6791;SDS011;3433;48.730;9.108;2023-12-29T02:23:15;3.53;;;2.83;;
6791;SDS011;3433;48.730;9.108;2023-12-29T02:26:06;5.80;;;3.67;;
6791;SDS011;3433;48.730;9.108;2023-12-29T02:28:56;4.77;;;3.77;;
6791;SDS011;3433;48.730;9.108;2023-12-29T02:31:49;3.50;;;3.17;;
6791;SDS011;3433;48.730;9.108;2023-12-29T02:34:39;5.20;;;3.60;;
6791;SDS011;3433;48.730;9.108;2023-12-29T02:37:28;5.30;;;4.07;;
6791;SDS011;3433;48.730;9.108;2023-12-29T02:40:15;5.50;;;3.60;;
6791;SDS011;3433;48.730;9.108;2023-12-29T02:43:04;5.10;;;3.40;;
6791;SDS011;3433;48.730;9.108;2023-12-29T02:45:51;4.20;;;3.80;;
6791;SDS011;3433;48.730;9.108;2023-12-29T02:48:39;3.80;;;3.50;;
6791;SDS011;3433;48.730;9.108;2023-12-29T02:51:26;3.73;;;3.37;;
6791;SDS011;3433;48.730;9.108;2023-12-29T02:54:13;3.83;;;3.43;;
6791;SDS011;3433;48.730;9.108;2023-12-29T02:57:00;4.33;;;3.93;;
6791;SDS011;3433;48.730;9.108;2023-12-29T02:59:49;5.83;;;4.30;;
6791;SDS011;3433;48.730;9.108;2023-12-29T03:02:36;5.20;;;3.97;;
6791;SDS011;3433;48.730;9.108;2023-12-29T03:05:23;4.23;;;3.83;;
6791;SDS011;3433;48.730;9.108;2023-12-29T03:08:10;4.87;;;3.90;;
6791;SDS011;3433;48.730;9.108;2023-12-29T03:10:58;4.77;;;4.20;;
6791;SDS011;3433;48.730;9.108;2023-12-29T03:13:45;3.73;;;3.27;;
6791;SDS011;3433;48.730;9.108;2023-12-29T03:16:34;5.03;;;3.70;;
6791;SDS011;3433;48.730;9.108;2023-12-29T03:19:21;5.43;;;3.80;;
6791;SDS011;3433;48.730;9.108;2023-12-29T03:22:08;4.10;;;3.70;;
6791;SDS011;3433;48.730;9.108;2023-12-29T03:24:55;4.57;;;3.90;;
6791;SDS011;3433;48.730;9.108;2023-12-29T03:27:43;4.87;;;4.07;;
6791;SDS011;3433;48.730;9.108;2023-12-29T03:30:30;3.87;;;3.40;;
6791;SDS011;3433;48.730;9.108;2023-12-29T03:33:18;5.70;;;3.77;;
6791;SDS011;3433;48.730;9.108;2023-12-29T03:36:06;4.00;;;3.60;;
6791;SDS011;3433;48.730;9.108;2023-12-29T03:38:55;4.37;;;3.67;;
6791;SDS011;3433;48.730;9.108;2023-12-29T03:41:42;4.60;;;3.83;;
6791;SDS011;3433;48.730;9.108;2023-12-29T03:44:29;4.30;;;3.53;;
6791;SDS011;3433;48.730;9.108;2023-12-29T03:47:16;3.93;;;3.40;;
6791;SDS011;3433;48.730;9.108;2023-12-29T03:50:05;3.77;;;2.97;;
6791;SDS011;3433;48.730;9.108;2023-12-29T03:52:53;3.70;;;3.40;;
6791;SDS011;3433;48.730;9.108;2023-12-29T03:55:40;3.47;;;3.17;;
6791;SDS011;3433;48.730;9.108;2023-12-29T03:58:27;3.50;;;3.20;;
6791;SDS011;3433;48.730;9.108;2023-12-29T04:01:15;5.80;;;3.00;;
6791;SDS011;3433;48.730;9.108;2023-12-29T04:04:03;3.80;;;3.20;;
6791;SDS011;3433;48.730;9.108;2023-12-29T04:06:52;3.77;;;3.20;;
6791;SDS011;3433;48.730;9.108;2023-12-29T04:09:39;4.90;;;3.43;;
6791;SDS011;3433;48.730;9.108;2023-12-29T04:12:26;4.07;;;3.07;;
6791;SDS011;3433;48.730;9.108;2023-12-29T04:15:14;3.87;;;3.00;;
6791;SDS011;3433;48.730;9.108;2023-12-29T04:18:01;3.97;;;3.37;;
6791;SDS011;3433;48.730;9.108;2023-12-29T04:20:48;3.30;;;3.00;;
6791;SDS011;3433;48.730;9.108;2023-12-29T04:23:37;4.23;;;3.60;;
6791;SDS011;3433;48.730;9.108;2023-12-29T04:26:24;3.37;;;3.07;;
6791;SDS011;3433;48.730;9.108;2023-12-29T04:29:11;3.70;;;3.20;;
6791;SDS011;3433;48.730;9.108;2023-12-29T04:31:58;3.10;;;2.77;;
6791;SDS011;3433;48.730;9.108;2023-12-29T04:34:46;3.43;;;3.13;;
6791;SDS011;3433;48.730;9.108;2023-12-29T04:37:33;3.73;;;3.00;;
6791;SDS011;3433;48.730;9.108;2023-12-29T04:40:21;4.30;;;3.30;;
6791;SDS011;3433;48.730;9.108;2023-12-29T04:43:09;3.70;;;3.33;;
6791;SDS011;3433;48.730;9.108;2023-12-29T04:45:56;4.97;;;3.50;;
6791;SDS011;3433;48.730;9.108;2023-12-29T04:48:43;3.97;;;3.57;;
6791;SDS011;3433;48.730;9.108;2023-12-29T04:51:30;3.47;;;3.17;;
6791;SDS011;3433;48.730;9.108;2023-12-29T04:54:17;4.63;;;4.10;;
6791;SDS011;3433;48.730;9.108;2023-12-29T04:57:06;3.63;;;3.00;;
6791;SDS011;3433;48.730;9.108;2023-12-29T04:59:53;5.33;;;3.60;;
6791;SDS011;3433;48.730;9.108;2023-12-29T05:02:40;4.10;;;3.70;;
6791;SDS011;3433;48.730;9.108;2023-12-29T05:05:28;3.60;;;3.10;;
6791;SDS011;3433;48.730;9.108;2023-12-29T05:08:15;3.80;;;2.60;;
6791;SDS011;3433;48.730;9.108;2023-12-29T05:11:02;3.33;;;3.03;;
6791;SDS011;3433;48.730;9.108;2023-12-29T05:13:51;4.30;;;3.30;;
6791;SDS011;3433;48.730;9.108;2023-12-29T05:16:38;6.20;;;3.20;;
6791;SDS011;3433;48.730;9.108;2023-12-29T05:19:26;3.90;;;3.50;;
6791;SDS011;3433;48.730;9.108;2023-12-29T05:22:13;4.37;;;3.20;;
6791;SDS011;3433;48.730;9.108;2023-12-29T05:25:03;5.10;;;3.77;;
6791;SDS011;3433;48.730;9.108;2023-12-29T05:27:50;5.03;;;3.23;;
6791;SDS011;3433;48.730;9.108;2023-12-29T05:30:39;6.90;;;3.00;;
6791;SDS011;3433;48.730;9.108;2023-12-29T05:33:26;4.10;;;3.40;;
6791;SDS011;3433;48.730;9.108;2023-12-29T05:36:13;3.57;;;3.27;;
6791;SDS011;3433;48.730;9.108;2023-12-29T05:39:00;3.87;;;3.57;;
6791;SDS011;3433;48.730;9.108;2023-12-29T05:41:49;4.20;;;3.40;;
6791;SDS011;3433;48.730;9.108;2023-12-29T05:44:36;4.33;;;3.33;;
6791;SDS011;3433;48.730;9.108;2023-12-29T05:47:25;5.10;;;3.63;;
6791;SDS011;3433;48.730;9.108;2023-12-29T05:50:12;4.23;;;3.57;;
6791;SDS011;3433;48.730;9.108;2023-12-29T05:52:59;4.60;;;4.10;;
6791;SDS011;3433;48.730;9.108;2023-12-29T05:55:47;3.30;;;3.00;;
6791;SDS011;3433;48.730;9.108;2023-12-29T05:58:34;5.60;;;4.10;;
6791;SDS011;3433;48.730;9.108;2023-12-29T06:01:22;4.57;;;3.60;;
6791;SDS011;3433;48.730;9.108;2023-12-29T06:04:11;3.80;;;3.40;;
6791;SDS011;3433;48.730;9.108;2023-12-29T06:06:58;4.90;;;2.90;;
6791;SDS011;3433;48.730;9.108;2023-12-29T06:09:45;3.57;;;3.23;;
6791;SDS011;3433;48.730;9.108;2023-12-29T06:12:33;3.73;;;3.00;;
6791;SDS011;3433;48.730;9.108;2023-12-29T06:15:20;4.80;;;3.00;;
6791;SDS011;3433;48.730;9.108;2023-12-29T06:18:07;3.20;;;2.53;;
6791;SDS011;3433;48.730;9.108;2023-12-29T06:20:56;4.17;;;3.23;;
6791;SDS011;3433;48.730;9.108;2023-12-29T06:23:43;3.73;;;3.07;;
6791;SDS011;3433;48.730;9.108;2023-12-29T06:26:31;3.50;;;2.97;;
6791;SDS011;3433;48.730;9.108;2023-12-29T06:29:18;3.17;;;2.87;;
6791;SDS011;3433;48.730;9.108;2023-12-29T06:32:06;5.70;;;2.87;;
6791;SDS011;3433;48.730;9.108;2023-12-29T06:34:53;4.00;;;3.40;;
6791;SDS011;3433;48.730;9.108;2023-12-29T06:37:42;5.53;;;3.23;;
6791;SDS011;3433;48.730;9.108;2023-12-29T06:40:29;4.80;;;3.67;;
6791;SDS011;3433;48.730;9.108;2023-12-29T06:43:16;5.10;;;3.17;;
6791;SDS011;3433;48.730;9.108;2023-12-29T06:46:04;4.03;;;3.20;;
6791;SDS011;3433;48.730;9.108;2023-12-29T06:48:51;3.03;;;2.73;;
6791;SDS011;3433;48.730;9.108;2023-12-29T06:51:39;2.70;;;2.50;;
6791;SDS011;3433;48.730;9.108;2023-12-29T06:54:27;4.47;;;2.90;;
6791;SDS011;3433;48.730;9.108;2023-12-29T06:57:15;5.33;;;2.90;;
6791;SDS011;3433;48.730;9.108;2023-12-29T07:00:03;4.80;;;3.30;;
6791;SDS011;3433;48.730;9.108;2023-12-29T07:02:51;3.40;;;3.10;;
6791;SDS011;3433;48.730;9.108;2023-12-29T07:05:38;4.10;;;3.63;;
6791;SDS011;3433;48.730;9.108;2023-12-29T07:08:26;4.70;;;3.33;;
6791;SDS011;3433;48.730;9.108;2023-12-29T07:11:14;3.53;;;2.97;;
6791;SDS011;3433;48.730;9.108;2023-12-29T07:14:02;3.23;;;2.90;;
6791;SDS011;3433;48.730;9.108;2023-12-29T07:16:49;3.27;;;2.47;;
6791;SDS011;3433;48.730;9.108;2023-12-29T07:19:36;3.10;;;2.80;;
6791;SDS011;3433;48.730;9.108;2023-12-29T07:22:23;2.90;;;2.60;;
6791;SDS011;3433;48.730;9.108;2023-12-29T07:25:11;2.70;;;2.50;;
6791;SDS011;3433;48.730;9.108;2023-12-29T07:28:00;2.73;;;2.53;;
6791;SDS011;3433;48.730;9.108;2023-12-29T07:30:47;3.23;;;2.90;;
6791;SDS011;3433;48.730;9.108;2023-12-29T07:33:34;3.13;;;2.60;;
6791;SDS011;3433;48.730;9.108;2023-12-29T07:36:21;3.23;;;2.77;;
6791;SDS011;3433;48.730;9.108;2023-12-29T07:39:09;2.53;;;2.33;;
6791;SDS011;3433;48.730;9.108;2023-12-29T07:41:56;3.40;;;2.87;;
6791;SDS011;3433;48.730;9.108;2023-12-29T07:44:45;6.90;;;3.20;;
6791;SDS011;3433;48.730;9.108;2023-12-29T07:47:32;3.13;;;2.83;;
6791;SDS011;3433;48.730;9.108;2023-12-29T07:50:19;13.23;;;4.90;;
6791;SDS011;3433;48.730;9.108;2023-12-29T07:53:06;16.53;;;6.63;;
6791;SDS011;3433;48.730;9.108;2023-12-29T07:55:54;9.17;;;4.80;;
6791;SDS011;3433;48.730;9.108;2023-12-29T07:58:41;6.30;;;3.70;;
6791;SDS011;3433;48.730;9.108;2023-12-29T08:01:30;3.73;;;2.70;;
6791;SDS011;3433;48.730;9.108;2023-12-29T08:04:17;3.07;;;2.77;;
6791;SDS011;3433;48.730;9.108;2023-12-29T08:07:04;4.07;;;3.27;;
6791;SDS011;3433;48.730;9.108;2023-12-29T08:09:51;6.53;;;2.63;;
6791;SDS011;3433;48.730;9.108;2023-12-29T08:12:38;2.70;;;2.47;;
6791;SDS011;3433;48.730;9.108;2023-12-29T08:15:26;4.17;;;3.70;;
6791;SDS011;3433;48.730;9.108;2023-12-29T08:18:14;2.93;;;2.60;;
6791;SDS011;3433;48.730;9.108;2023-12-29T08:21:01;3.70;;;2.90;;
6791;SDS011;3433;48.730;9.108;2023-12-29T08:23:49;3.50;;;2.40;;
6791;SDS011;3433;48.730;9.108;2023-12-29T08:26:43;3.17;;;2.77;;
6791;SDS011;3433;48.730;9.108;2023-12-29T08:29:31;3.03;;;2.57;;
6791;SDS011;3433;48.730;9.108;2023-12-29T08:32:18;3.57;;;3.00;;
6791;SDS011;3433;48.730;9.108;2023-12-29T08:35:07;3.17;;;2.80;;
6791;SDS011;3433;48.730;9.108;2023-12-29T08:37:54;4.80;;;2.40;;
6791;SDS011;3433;48.730;9.108;2023-12-29T08:40:42;3.23;;;2.93;;
6791;SDS011;3433;48.730;9.108;2023-12-29T08:43:29;3.93;;;2.77;;
6791;SDS011;3433;48.730;9.108;2023-12-29T08:46:17;3.30;;;2.63;;
6791;SDS011;3433;48.730;9.108;2023-12-29T08:49:04;5.07;;;3.13;;
6791;SDS011;3433;48.730;9.108;2023-12-29T08:51:53;3.13;;;2.83;;
6791;SDS011;3433;48.730;9.108;2023-12-29T08:54:41;3.27;;;2.87;;
6791;SDS011;3433;48.730;9.108;2023-12-29T08:57:28;5.83;;;3.67;;
6791;SDS011;3433;48.730;9.108;2023-12-29T09:00:15;3.53;;;2.93;;
6791;SDS011;3433;48.730;9.108;2023-12-29T09:03:03;2.53;;;2.33;;
6791;SDS011;3433;48.730;9.108;2023-12-29T09:05:50;4.30;;;3.17;;
6791;SDS011;3433;48.730;9.108;2023-12-29T09:08:39;4.10;;;2.97;;
6791;SDS011;3433;48.730;9.108;2023-12-29T09:11:26;2.93;;;2.63;;
6791;SDS011;3433;48.730;9.108;2023-12-29T09:14:13;2.87;;;2.47;;
6791;SDS011;3433;48.730;9.108;2023-12-29T09:17:01;2.40;;;2.20;;
6791;SDS011;3433;48.730;9.108;2023-12-29T09:19:50;2.97;;;2.77;;
6791;SDS011;3433;48.730;9.108;2023-12-29T09:22:37;2.17;;;1.93;;
6791;SDS011;3433;48.730;9.108;2023-12-29T09:25:26;2.37;;;2.17;;
6791;SDS011;3433;48.730;9.108;2023-12-29T09:28:13;3.10;;;2.80;;
6791;SDS011;3433;48.730;9.108;2023-12-29T09:31:01;2.80;;;2.37;;
6791;SDS011;3433;48.730;9.108;2023-12-29T09:33:48;3.20;;;2.90;;
6791;SDS011;3433;48.730;9.108;2023-12-29T09:36:35;2.40;;;2.20;;
6791;SDS011;3433;48.730;9.108;2023-12-29T09:39:23;2.93;;;2.20;;
6791;SDS011;3433;48.730;9.108;2023-12-29T09:42:15;2.43;;;2.20;;
6791;SDS011;3433;48.730;9.108;2023-12-29T09:45:07;3.10;;;2.00;;
6791;SDS011;3433;48.730;9.108;2023-12-29T09:47:57;2.47;;;2.27;;
6791;SDS011;3433;48.730;9.108;2023-12-29T09:50:48;2.30;;;2.10;;
6791;SDS011;3433;48.730;9.108;2023-12-29T09:53:37;3.07;;;1.90;;
6791;SDS011;3433;48.730;9.108;2023-12-29T09:56:11;3.40;;;2.17;;
6791;SDS011;3433;48.730;9.108;2023-12-29T09:58:41;3.33;;;2.50;;
6791;SDS011;3433;48.730;9.108;2023-12-29T10:01:09;3.00;;;2.50;;
6791;SDS011;3433;48.730;9.108;2023-12-29T10:03:37;3.63;;;2.00;;
6791;SDS011;3433;48.730;9.108;2023-12-29T10:06:06;1.97;;;1.77;;
6791;SDS011;3433;48.730;9.108;2023-12-29T10:08:33;2.00;;;1.83;;
6791;SDS011;3433;48.730;9.108;2023-12-29T10:11:03;4.10;;;2.17;;
6791;SDS011;3433;48.730;9.108;2023-12-29T10:13:31;2.40;;;2.20;;
6791;SDS011;3433;48.730;9.108;2023-12-29T10:16:04;2.80;;;1.87;;
6791;SDS011;3433;48.730;9.108;2023-12-29T10:18:37;2.97;;;2.13;;
6791;SDS011;3433;48.730;9.108;2023-12-29T10:21:12;2.03;;;1.83;;
6791;SDS011;3433;48.730;9.108;2023-12-29T10:23:47;2.20;;;1.60;;
6791;SDS011;3433;48.730;9.108;2023-12-29T10:26:19;3.33;;;1.50;;
6791;SDS011;3433;48.730;9.108;2023-12-29T10:28:46;1.67;;;1.57;;
6791;SDS011;3433;48.730;9.108;2023-12-29T10:31:15;1.50;;;1.40;;
6791;SDS011;3433;48.730;9.108;2023-12-29T10:33:42;1.73;;;1.37;;
6791;SDS011;3433;48.730;9.108;2023-12-29T10:36:11;1.60;;;1.50;;
6791;SDS011;3433;48.730;9.108;2023-12-29T10:38:39;2.07;;;1.60;;
6791;SDS011;3433;48.730;9.108;2023-12-29T10:41:10;1.70;;;1.13;;
6791;SDS011;3433;48.730;9.108;2023-12-29T10:43:38;1.77;;;1.50;;
6791;SDS011;3433;48.730;9.108;2023-12-29T10:46:06;1.77;;;1.63;;
6791;SDS011;3433;48.730;9.108;2023-12-29T10:48:35;1.63;;;1.20;;
6791;SDS011;3433;48.730;9.108;2023-12-29T10:51:03;5.07;;;1.97;;
6791;SDS011;3433;48.730;9.108;2023-12-29T10:53:30;1.70;;;1.37;;
6791;SDS011;3433;48.730;9.108;2023-12-29T10:55:58;2.00;;;1.60;;
6791;SDS011;3433;48.730;9.108;2023-12-29T10:58:25;1.90;;;1.80;;
6791;SDS011;3433;48.730;9.108;2023-12-29T11:00:54;1.70;;;1.60;;
6791;SDS011;3433;48.730;9.108;2023-12-29T11:03:21;2.90;;;1.60;;
6791;SDS011;3433;48.730;9.108;2023-12-29T11:05:50;2.17;;;1.80;;
6791;SDS011;3433;48.730;9.108;2023-12-29T11:08:17;1.67;;;1.57;;
6791;SDS011;3433;48.730;9.108;2023-12-29T11:10:47;1.60;;;1.50;;
6791;SDS011;3433;48.730;9.108;2023-12-29T11:13:15;1.87;;;1.77;;
6791;SDS011;3433;48.730;9.108;2023-12-29T11:15:42;2.07;;;1.73;;
6791;SDS011;3433;48.730;9.108;2023-12-29T11:18:11;1.47;;;1.37;;
6791;SDS011;3433;48.730;9.108;2023-12-29T11:20:40;2.03;;;1.83;;
6791;SDS011;3433;48.730;9.108;2023-12-29T11:23:09;1.80;;;1.70;;
6791;SDS011;3433;48.730;9.108;2023-12-29T11:25:38;1.80;;;1.50;;
6791;SDS011;3433;48.730;9.108;2023-12-29T11:28:06;1.53;;;1.43;;
6791;SDS011;3433;48.730;9.108;2023-12-29T11:30:35;1.50;;;1.40;;
6791;SDS011;3433;48.730;9.108;2023-12-29T11:33:05;1.60;;;1.50;;
6791;SDS011;3433;48.730;9.108;2023-12-29T11:35:37;2.00;;;1.23;;
6791;SDS011;3433;48.730;9.108;2023-12-29T11:38:18;1.60;;;1.50;;
6791;SDS011;3433;48.730;9.108;2023-12-29T11:40:52;1.60;;;1.50;;
6791;SDS011;3433;48.730;9.108;2023-12-29T11:43:27;1.70;;;1.60;;
6791;SDS011;3433;48.730;9.108;2023-12-29T11:45:55;1.63;;;1.53;;
6791;SDS011;3433;48.730;9.108;2023-12-29T11:51:30;2.00;;;1.60;;
6791;SDS011;3433;48.730;9.108;2023-12-29T11:54:00;2.03;;;1.63;;
6791;SDS011;3433;48.730;9.108;2023-12-29T11:56:36;2.33;;;1.20;;
6791;SDS011;3433;48.730;9.108;2023-12-29T11:59:15;1.30;;;1.20;;
6791;SDS011;3433;48.730;9.108;2023-12-29T12:01:43;1.67;;;1.30;;
6791;SDS011;3433;48.730;9.108;2023-12-29T12:07:02;1.70;;;1.60;;
6791;SDS011;3433;48.730;9.108;2023-12-29T12:09:31;1.30;;;1.20;;
6791;SDS011;3433;48.730;9.108;2023-12-29T12:11:59;1.57;;;1.43;;
6791;SDS011;3433;48.730;9.108;2023-12-29T12:14:43;2.00;;;1.80;;
6791;SDS011;3433;48.730;9.108;2023-12-29T12:17:11;2.93;;;1.90;;
6791;SDS011;3433;48.730;9.108;2023-12-29T12:19:38;1.87;;;1.47;;
6791;SDS011;3433;48.730;9.108;2023-12-29T12:22:05;2.10;;;1.90;;
6791;SDS011;3433;48.730;9.108;2023-12-29T12:24:37;2.17;;;1.97;;
6791;SDS011;3433;48.730;9.108;2023-12-29T12:27:08;1.60;;;1.50;;
6791;SDS011;3433;48.730;9.108;2023-12-29T12:29:36;1.50;;;1.40;;
6791;SDS011;3433;48.730;9.108;2023-12-29T12:32:03;1.80;;;1.27;;
6791;SDS011;3433;48.730;9.108;2023-12-29T12:34:36;1.60;;;1.50;;
6791;SDS011;3433;48.730;9.108;2023-12-29T12:37:03;1.50;;;1.37;;
6791;SDS011;3433;48.730;9.108;2023-12-29T12:39:39;2.43;;;1.70;;
6791;SDS011;3433;48.730;9.108;2023-12-29T12:42:06;1.80;;;1.70;;
6791;SDS011;3433;48.730;9.108;2023-12-29T12:44:33;2.20;;;1.50;;
6791;SDS011;3433;48.730;9.108;2023-12-29T12:47:01;3.90;;;1.97;;
6791;SDS011;3433;48.730;9.108;2023-12-29T12:49:35;2.10;;;1.70;;
6791;SDS011;3433;48.730;9.108;2023-12-29T12:52:02;2.00;;;1.87;;
6791;SDS011;3433;48.730;9.108;2023-12-29T12:54:30;2.00;;;1.80;;
6791;SDS011;3433;48.730;9.108;2023-12-29T12:56:59;1.60;;;1.50;;
6791;SDS011;3433;48.730;9.108;2023-12-29T12:59:26;1.97;;;1.83;;
6791;SDS011;3433;48.730;9.108;2023-12-29T13:01:54;1.57;;;1.43;;
6791;SDS011;3433;48.730;9.108;2023-12-29T13:04:21;1.43;;;1.33;;
6791;SDS011;3433;48.730;9.108;2023-12-29T13:06:48;1.50;;;1.40;;
6791;SDS011;3433;48.730;9.108;2023-12-29T13:09:15;3.07;;;1.80;;
6791;SDS011;3433;48.730;9.108;2023-12-29T13:11:44;2.03;;;1.30;;
6791;SDS011;3433;48.730;9.108;2023-12-29T13:14:20;1.80;;;1.57;;
6791;SDS011;3433;48.730;9.108;2023-12-29T13:16:47;1.50;;;1.40;;
6791;SDS011;3433;48.730;9.108;2023-12-29T13:19:18;1.73;;;1.23;;
6791;SDS011;3433;48.730;9.108;2023-12-29T13:21:46;1.80;;;1.27;;
6791;SDS011;3433;48.730;9.108;2023-12-29T13:24:14;1.57;;;1.20;;
6791;SDS011;3433;48.730;9.108;2023-12-29T13:26:42;2.03;;;1.80;;
6791;SDS011;3433;48.730;9.108;2023-12-29T13:29:12;1.60;;;1.50;;
6791;SDS011;3433;48.730;9.108;2023-12-29T13:31:41;1.10;;;1.00;;
6791;SDS011;3433;48.730;9.108;2023-12-29T13:34:11;1.37;;;1.20;;
6791;SDS011;3433;48.730;9.108;2023-12-29T13:36:43;2.00;;;1.40;;
6791;SDS011;3433;48.730;9.108;2023-12-29T13:39:21;1.27;;;1.17;;
6791;SDS011;3433;48.730;9.108;2023-12-29T13:41:54;1.87;;;1.60;;
6791;SDS011;3433;48.730;9.108;2023-12-29T13:44:23;1.50;;;1.40;;
6791;SDS011;3433;48.730;9.108;2023-12-29T13:46:53;1.60;;;1.50;;
6791;SDS011;3433;48.730;9.108;2023-12-29T13:49:22;1.60;;;1.50;;
6791;SDS011;3433;48.730;9.108;2023-12-29T13:51:49;1.50;;;1.40;;
6791;SDS011;3433;48.730;9.108;2023-12-29T13:54:16;1.93;;;1.43;;
6791;SDS011;3433;48.730;9.108;2023-12-29T13:56:53;1.30;;;1.20;;
6791;SDS011;3433;48.730;9.108;2023-12-29T13:59:28;2.10;;;1.90;;
6791;SDS011;3433;48.730;9.108;2023-12-29T14:01:59;2.40;;;1.40;;
6791;SDS011;3433;48.730;9.108;2023-12-29T14:04:44;1.50;;;1.40;;
6791;SDS011;3433;48.730;9.108;2023-12-29T14:07:11;2.80;;;1.50;;
6791;SDS011;3433;48.730;9.108;2023-12-29T14:09:39;1.30;;;1.20;;
6791;SDS011;3433;48.730;9.108;2023-12-29T14:12:06;1.60;;;1.50;;
6791;SDS011;3433;48.730;9.108;2023-12-29T14:14:33;1.70;;;1.60;;
6791;SDS011;3433;48.730;9.108;2023-12-29T14:17:02;2.03;;;1.83;;
6791;SDS011;3433;48.730;9.108;2023-12-29T14:19:34;1.90;;;1.53;;
6791;SDS011;3433;48.730;9.108;2023-12-29T14:22:01;1.40;;;1.30;;
6791;SDS011;3433;48.730;9.108;2023-12-29T14:24:28;2.97;;;1.60;;
6791;SDS011;3433;48.730;9.108;2023-12-29T14:26:55;2.43;;;1.40;;
6791;SDS011;3433;48.730;9.108;2023-12-29T14:29:24;1.40;;;1.30;;
6791;SDS011;3433;48.730;9.108;2023-12-29T14:31:51;1.90;;;1.23;;
6791;SDS011;3433;48.730;9.108;2023-12-29T14:34:22;3.10;;;1.80;;
6791;SDS011;3433;48.730;9.108;2023-12-29T14:36:49;2.10;;;1.60;;
6791;SDS011;3433;48.730;9.108;2023-12-29T14:39:17;1.43;;;1.33;;
6791;SDS011;3433;48.730;9.108;2023-12-29T14:41:44;2.37;;;1.80;;
6791;SDS011;3433;48.730;9.108;2023-12-29T14:44:11;1.67;;;1.40;;
6791;SDS011;3433;48.730;9.108;2023-12-29T14:46:39;3.83;;;1.87;;
6791;SDS011;3433;48.730;9.108;2023-12-29T14:49:06;1.90;;;1.73;;
6791;SDS011;3433;48.730;9.108;2023-12-29T14:51:35;2.53;;;1.40;;
6791;SDS011;3433;48.730;9.108;2023-12-29T14:54:02;1.87;;;1.77;;
6791;SDS011;3433;48.730;9.108;2023-12-29T14:56:29;4.73;;;1.60;;
6791;SDS011;3433;48.730;9.108;2023-12-29T14:58:56;1.37;;;1.27;;
6791;SDS011;3433;48.730;9.108;2023-12-29T15:01:23;1.60;;;1.40;;
6791;SDS011;3433;48.730;9.108;2023-12-29T15:03:51;1.67;;;1.30;;
6791;SDS011;3433;48.730;9.108;2023-12-29T15:06:18;1.67;;;1.30;;
6791;SDS011;3433;48.730;9.108;2023-12-29T15:08:46;3.97;;;2.67;;
6791;SDS011;3433;48.730;9.108;2023-12-29T15:11:13;2.07;;;1.80;;
6791;SDS011;3433;48.730;9.108;2023-12-29T15:13:40;1.30;;;1.20;;
6791;SDS011;3433;48.730;9.108;2023-12-29T15:16:07;1.90;;;1.50;;
6791;SDS011;3433;48.730;9.108;2023-12-29T15:18:34;1.80;;;1.63;;
6791;SDS011;3433;48.730;9.108;2023-12-29T15:21:01;1.70;;;1.60;;
6791;SDS011;3433;48.730;9.108;2023-12-29T15:23:28;3.83;;;1.67;;
6791;SDS011;3433;48.730;9.108;2023-12-29T15:25:57;2.27;;;2.07;;
6791;SDS011;3433;48.730;9.108;2023-12-29T15:28:24;2.43;;;1.70;;
6791;SDS011;3433;48.730;9.108;2023-12-29T15:30:51;1.93;;;1.70;;
6791;SDS011;3433;48.730;9.108;2023-12-29T15:33:18;6.37;;;1.80;;
6791;SDS011;3433;48.730;9.108;2023-12-29T15:35:45;1.87;;;1.77;;
6791;SDS011;3433;48.730;9.108;2023-12-29T15:38:12;2.10;;;1.43;;
6791;SDS011;3433;48.730;9.108;2023-12-29T15:40:39;2.00;;;1.80;;
6791;SDS011;3433;48.730;9.108;2023-12-29T15:43:07;1.80;;;1.70;;
6791;SDS011;3433;48.730;9.108;2023-12-29T15:45:34;1.50;;;1.40;;
6791;SDS011;3433;48.730;9.108;2023-12-29T15:48:01;2.03;;;1.47;;
6791;SDS011;3433;48.730;9.108;2023-12-29T15:50:28;7.13;;;2.03;;
6791;SDS011;3433;48.730;9.108;2023-12-29T15:52:55;2.27;;;2.07;;
6791;SDS011;3433;48.730;9.108;2023-12-29T15:55:22;1.83;;;1.70;;
6791;SDS011;3433;48.730;9.108;2023-12-29T15:57:48;3.07;;;2.23;;
6791;SDS011;3433;48.730;9.108;2023-12-29T16:00:17;2.10;;;1.77;;
6791;SDS011;3433;48.730;9.108;2023-12-29T16:02:45;3.00;;;2.10;;
6791;SDS011;3433;48.730;9.108;2023-12-29T16:05:12;5.67;;;2.40;;
6791;SDS011;3433;48.730;9.108;2023-12-29T16:07:39;4.33;;;2.60;;
6791;SDS011;3433;48.730;9.108;2023-12-29T16:10:06;2.63;;;2.10;;
6791;SDS011;3433;48.730;9.108;2023-12-29T16:12:34;3.07;;;2.60;;
6791;SDS011;3433;48.730;9.108;2023-12-29T16:15:01;2.00;;;1.70;;
6791;SDS011;3433;48.730;9.108;2023-12-29T16:17:30;1.77;;;1.57;;
6791;SDS011;3433;48.730;9.108;2023-12-29T16:19:56;2.37;;;1.60;;
6791;SDS011;3433;48.730;9.108;2023-12-29T16:22:23;2.40;;;2.20;;
6791;SDS011;3433;48.730;9.108;2023-12-29T16:24:50;2.90;;;2.27;;
6791;SDS011;3433;48.730;9.108;2023-12-29T16:27:18;4.07;;;2.43;;
6791;SDS011;3433;48.730;9.108;2023-12-29T16:29:45;3.03;;;2.40;;
6791;SDS011;3433;48.730;9.108;2023-12-29T16:32:19;3.37;;;2.57;;
6791;SDS011;3433;48.730;9.108;2023-12-29T16:34:49;2.90;;;2.40;;
6791;SDS011;3433;48.730;9.108;2023-12-29T16:37:16;3.17;;;2.43;;
6791;SDS011;3433;48.730;9.108;2023-12-29T16:39:43;2.70;;;2.03;;